createdAt,value
2018-10-18T00:01:15.561Z,12.71
2018-10-18T00:03:43.849Z,12.40
2018-10-18T00:06:12.137Z,12.22
2018-10-18T00:08:40.381Z,12.85
2018-10-18T00:11:08.649Z,12.39
2018-10-18T00:13:47.228Z,12.41
2018-10-18T00:16:15.517Z,12.91
2018-10-18T00:24:46.360Z,12.65
2018-10-18T00:27:14.637Z,12.90
2018-10-18T00:29:42.904Z,12.33
2018-10-18T00:32:11.180Z,12.98
2018-10-18T00:34:39.518Z,13.29
2018-10-18T00:37:07.808Z,12.79
2018-10-18T00:39:36.061Z,12.39
2018-10-18T00:42:04.446Z,12.60
2018-10-18T00:44:32.698Z,12.60
2018-10-18T00:47:00.996Z,12.32
2018-10-18T00:49:29.290Z,12.40
2018-10-18T00:51:57.561Z,12.35
2018-10-18T00:54:25.826Z,12.28
2018-10-18T00:56:54.120Z,12.35
2018-10-18T00:59:22.373Z,12.48
2018-10-18T01:01:50.679Z,12.60
2018-10-18T01:04:18.949Z,12.57
2018-10-18T01:06:47.210Z,12.43
2018-10-18T01:09:15.504Z,12.58
2018-10-18T01:11:43.782Z,11.85
2018-10-18T01:14:17.950Z,11.70
2018-10-18T01:16:46.152Z,11.24
2018-10-18T01:22:07.488Z,11.64
2018-10-18T01:24:43.153Z,11.78
2018-10-18T01:33:07.373Z,12.77
2018-10-18T01:35:35.636Z,12.62
2018-10-18T01:38:03.953Z,12.81
2018-10-18T01:40:32.201Z,12.79
2018-10-18T01:43:00.457Z,12.78
2018-10-18T01:45:29.097Z,12.94
2018-10-18T01:47:57.422Z,13.28
2018-10-18T01:50:25.645Z,13.25
2018-10-18T01:52:53.952Z,13.41
2018-10-18T01:55:22.202Z,13.41
2018-10-18T01:57:50.482Z,13.51
2018-10-18T02:00:18.880Z,13.48
2018-10-18T02:02:47.067Z,13.37
2018-10-18T02:05:15.363Z,13.17
2018-10-18T02:07:43.633Z,13.34
2018-10-18T02:10:11.918Z,13.42
2018-10-18T02:22:02.568Z,13.43
2018-10-18T02:24:30.832Z,13.39
2018-10-18T03:12:45.414Z,13.21
2018-10-18T03:15:13.694Z,13.41
2018-10-18T03:17:41.978Z,13.69
2018-10-18T03:20:10.279Z,13.44
2018-10-18T03:22:38.586Z,13.31
2018-10-18T03:27:59.053Z,13.57
2018-10-18T03:30:27.329Z,13.42
2018-10-18T03:32:55.609Z,13.57
2018-10-18T03:35:23.867Z,13.48
2018-10-18T03:37:52.137Z,13.45
2018-10-18T03:40:20.393Z,13.34
2018-10-18T03:42:48.650Z,13.41
2018-10-18T03:45:16.888Z,13.39
2018-10-18T03:47:45.145Z,13.54
2018-10-18T03:50:13.406Z,13.43
2018-10-18T03:52:41.684Z,13.60
2018-10-18T03:55:09.921Z,13.53
2018-10-18T03:57:38.186Z,13.61
2018-10-18T04:00:07.219Z,13.55
2018-10-18T04:02:35.570Z,13.54
2018-10-18T04:05:03.818Z,13.46
2018-10-18T04:07:32.061Z,13.55
2018-10-18T04:10:00.298Z,13.35
2018-10-18T04:15:21.136Z,13.39
2018-10-18T04:17:49.473Z,13.49
2018-10-18T04:20:21.006Z,13.41
2018-10-18T04:22:49.272Z,13.44
2018-10-18T04:25:35.421Z,13.16
2018-10-18T05:28:17.179Z,13.27
2018-10-18T05:30:45.456Z,13.29
2018-10-18T05:33:13.693Z,13.34
2018-10-18T05:35:41.953Z,13.35
2018-10-18T05:38:10.185Z,13.21
2018-10-18T05:40:38.441Z,13.44
2018-10-18T05:43:06.754Z,13.65
2018-10-18T05:45:35.006Z,13.53
2018-10-18T05:48:03.420Z,13.60
2018-10-18T05:50:31.664Z,13.34
2018-10-18T05:53:00.023Z,13.64
2018-10-18T05:55:28.258Z,13.39
2018-10-18T05:57:56.504Z,13.65
2018-10-18T06:00:24.805Z,13.47
2018-10-18T06:02:53.009Z,13.67
2018-10-18T06:05:21.269Z,13.54
2018-10-18T06:07:49.500Z,13.65
2018-10-18T06:10:29.007Z,13.26
2018-10-18T06:12:57.224Z,13.49
2018-10-18T06:21:21.337Z,13.97
2018-10-18T06:23:49.822Z,14.03
2018-10-18T07:29:49.342Z,14.12
2018-10-18T07:32:17.613Z,14.30
2018-10-18T07:34:45.897Z,14.14
2018-10-18T07:37:14.179Z,14.15
2018-10-18T07:39:42.441Z,14.11
2018-10-18T07:42:10.725Z,14.11
2018-10-18T07:44:38.997Z,14.09
2018-10-18T07:47:07.270Z,14.09
2018-10-18T07:49:35.518Z,14.03
2018-10-18T07:52:03.818Z,13.96
2018-10-18T07:54:32.049Z,13.90
2018-10-18T07:57:00.270Z,13.99
2018-10-18T07:59:28.546Z,14.09
2018-10-18T08:01:56.743Z,13.95
2018-10-18T08:04:24.977Z,13.98
2018-10-18T08:06:53.282Z,13.95
2018-10-18T08:09:21.490Z,13.90
2018-10-18T08:11:49.732Z,13.99
2018-10-18T08:14:19.496Z,13.99
2018-10-18T08:16:47.776Z,14.00
2018-10-18T08:25:11.268Z,14.02
2018-10-18T08:27:39.426Z,14.01
2018-10-18T08:30:09.365Z,14.10
2018-10-18T08:32:43.825Z,14.17
2018-10-18T08:35:12.795Z,14.09
2018-10-18T08:37:41.229Z,14.08
2018-10-18T08:40:09.518Z,14.07
2018-10-18T08:42:37.757Z,14.20
2018-10-18T08:45:07.313Z,14.07
2018-10-18T08:47:35.579Z,14.11
2018-10-18T08:50:03.925Z,14.15
2018-10-18T08:52:32.125Z,14.18
2018-10-18T08:55:00.439Z,14.23
2018-10-18T08:57:28.648Z,14.23
2018-10-18T08:59:56.929Z,14.19
2018-10-18T09:02:25.199Z,14.24
2018-10-18T09:04:53.507Z,14.39
2018-10-18T09:07:21.765Z,14.23
2018-10-18T09:09:50.019Z,14.32
2018-10-18T09:23:59.087Z,14.10
2018-10-18T09:26:27.255Z,14.12
2018-10-18T09:31:48.301Z,14.14
2018-10-18T09:34:16.557Z,14.13
2018-10-18T09:36:44.804Z,14.22
2018-10-18T09:39:13.054Z,14.20
2018-10-18T09:41:41.314Z,14.20
2018-10-18T09:44:09.572Z,14.18
2018-10-18T09:46:38.071Z,14.13
2018-10-18T09:49:06.374Z,14.14
2018-10-18T09:51:34.600Z,14.13
2018-10-18T09:54:03.584Z,14.13
2018-10-18T09:56:32.818Z,14.17
2018-10-18T09:59:01.358Z,14.25
2018-10-18T10:01:34.822Z,14.23
2018-10-18T10:04:03.137Z,14.28
2018-10-18T10:06:31.377Z,14.36
2018-10-18T10:08:59.660Z,14.54
2018-10-18T10:11:27.965Z,14.38
2018-10-18T10:13:57.551Z,14.39
2018-10-18T10:16:25.800Z,14.52
2018-10-18T10:18:54.084Z,14.54
2018-10-18T10:27:17.024Z,14.90
2018-10-18T10:29:45.284Z,14.97
2018-10-18T10:32:13.561Z,14.81
2018-10-18T10:34:41.817Z,14.91
2018-10-18T10:37:10.100Z,14.85
2018-10-18T10:39:38.353Z,14.99
2018-10-18T10:42:06.882Z,15.03
2018-10-18T10:44:35.183Z,15.31
2018-10-18T10:47:03.408Z,15.63
2018-10-18T10:49:31.708Z,15.19
2018-10-18T10:52:00.034Z,15.05
2018-10-18T10:54:28.275Z,15.12
2018-10-18T10:56:56.587Z,14.94
2018-10-18T10:59:24.821Z,14.91
2018-10-18T11:01:53.104Z,14.85
2018-10-18T11:04:21.362Z,15.13
2018-10-18T11:06:49.697Z,15.19
2018-10-18T11:09:18.086Z,14.95
2018-10-18T11:11:46.352Z,15.13
2018-10-18T11:14:14.609Z,15.22
2018-10-18T11:19:57.598Z,15.09
2018-10-18T11:22:25.827Z,14.90
2018-10-18T11:30:49.530Z,15.57
2018-10-18T11:33:17.883Z,15.47
2018-10-18T11:35:46.111Z,15.44
2018-10-18T11:38:15.232Z,15.68
2018-10-18T11:40:43.565Z,15.49
2018-10-18T11:43:12.085Z,15.05
2018-10-18T11:45:40.606Z,15.10
2018-10-18T11:48:10.210Z,14.99
2018-10-18T11:50:38.443Z,14.97
2018-10-18T11:53:06.699Z,14.96
2018-10-18T11:55:35.197Z,14.81
2018-10-18T11:58:03.553Z,14.54
2018-10-18T12:00:31.801Z,14.52
2018-10-18T12:03:00.040Z,14.79
2018-10-18T12:05:28.279Z,14.61
2018-10-18T12:07:56.555Z,14.70
2018-10-18T12:10:24.801Z,14.78
2018-10-18T12:13:11.794Z,14.44
2018-10-18T12:15:40.120Z,14.68
2018-10-18T12:18:08.420Z,14.64
2018-10-18T13:29:52.308Z,17.48
2018-10-18T13:32:20.560Z,17.53
2018-10-18T13:34:48.797Z,18.19
2018-10-18T13:37:17.054Z,18.97
2018-10-18T13:39:45.318Z,17.59
2018-10-18T13:42:13.599Z,16.07
2018-10-18T13:44:41.832Z,16.13
2018-10-18T13:47:10.118Z,15.90
2018-10-18T13:49:38.390Z,15.77
2018-10-18T13:52:06.645Z,15.39
2018-10-18T13:54:34.890Z,16.36
2018-10-18T13:57:03.707Z,16.75
2018-10-18T13:59:43.245Z,17.86
2018-10-18T14:02:11.417Z,18.13
2018-10-18T14:04:39.674Z,18.50
2018-10-18T14:07:07.917Z,18.71
2018-10-18T14:09:36.178Z,18.46
2018-10-18T14:12:04.414Z,18.35
2018-10-18T14:17:25.517Z,18.48
2018-10-18T14:22:58.145Z,17.86
2018-10-18T15:22:50.260Z,16.25
2018-10-18T16:16:49.485Z,13.51
2018-10-18T16:19:46.310Z,13.52
2018-10-18T16:31:01.948Z,13.09
2018-10-18T16:33:30.250Z,13.04
2018-10-18T16:35:58.487Z,13.06
2018-10-18T16:38:26.760Z,13.20
2018-10-18T17:03:40.458Z,12.90
2018-10-18T17:06:08.652Z,12.87
2018-10-18T17:08:36.618Z,12.70
2018-10-18T17:11:04.954Z,12.67
2018-10-18T17:50:03.550Z,12.27
2018-10-18T17:52:31.697Z,12.26
2018-10-18T17:54:59.723Z,12.23
2018-10-18T17:57:27.862Z,12.25
2018-10-18T17:59:56.373Z,12.26
2018-10-18T18:02:24.765Z,12.20
2018-10-18T18:04:52.893Z,12.34
2018-10-18T18:07:20.983Z,12.32
2018-10-18T18:09:49.100Z,12.28
2018-10-18T18:12:17.198Z,12.19
2018-10-18T18:32:52.171Z,12.10
2018-10-18T18:35:20.294Z,12.12
2018-10-18T18:43:43.674Z,11.90
2018-10-18T18:46:11.761Z,12.01
2018-10-18T18:48:39.914Z,11.89
2018-10-18T18:51:08.090Z,11.81
2018-10-18T18:53:36.248Z,11.88
2018-10-18T18:56:04.321Z,12.13
2018-10-18T18:58:32.428Z,11.88
2018-10-18T19:01:00.529Z,11.84
2018-10-18T19:03:28.667Z,11.70
2018-10-18T19:05:56.747Z,11.77
2018-10-18T19:08:24.837Z,11.73
2018-10-18T19:10:52.942Z,11.67
2018-10-18T19:16:35.534Z,11.77
2018-10-18T19:19:03.979Z,11.65
2018-10-18T19:21:32.108Z,11.60
2018-10-18T19:24:00.200Z,11.54
2018-10-18T19:26:28.272Z,11.49
2018-10-18T19:28:56.354Z,11.53
2018-10-18T19:34:19.417Z,11.44
2018-10-18T19:36:57.963Z,11.37
2018-10-18T19:42:28.126Z,11.33
2018-10-18T19:50:50.700Z,11.42
2018-10-18T19:53:18.812Z,11.41
2018-10-18T19:55:54.156Z,11.33
2018-10-18T19:58:22.373Z,11.31
2018-10-18T20:00:51.847Z,11.34
2018-10-18T20:03:19.994Z,11.39
2018-10-18T20:05:51.426Z,11.24
2018-10-18T20:08:23.009Z,11.22
2018-10-18T20:10:51.102Z,11.19
2018-10-18T20:13:23.270Z,11.08
2018-10-18T20:31:02.062Z,10.80
2018-10-18T20:33:30.146Z,10.70
2018-10-18T20:36:16.531Z,10.57
2018-10-18T20:38:45.287Z,10.40
2018-10-18T20:44:05.853Z,10.43
2018-10-18T20:46:46.616Z,10.08
2018-10-18T20:49:14.570Z,10.06
2018-10-18T20:51:42.643Z,10.08
2018-10-18T20:54:10.785Z,9.97
2018-10-18T20:56:38.803Z,9.88
2018-10-18T20:59:06.901Z,9.70
2018-10-18T21:01:34.969Z,9.75
2018-10-18T21:04:03.041Z,9.44
2018-10-18T21:06:31.366Z,9.46
2018-10-18T21:08:59.261Z,9.70
2018-10-18T21:11:27.358Z,9.79
2018-10-18T21:16:47.609Z,10.03
2018-10-18T21:19:15.692Z,10.08
2018-10-18T21:21:43.771Z,10.28
2018-10-18T21:24:11.848Z,10.29
2018-10-18T21:26:39.932Z,10.35
2018-10-18T21:29:08.029Z,10.46
2018-10-18T21:34:28.639Z,10.32
2018-10-18T22:26:57.595Z,8.84
2018-10-18T22:32:18.490Z,8.88
2018-10-18T22:40:41.645Z,8.91
2018-10-18T22:43:21.566Z,8.66
2018-10-18T22:45:55.138Z,8.61
2018-10-18T22:48:23.218Z,8.58
2018-10-18T22:50:51.297Z,8.57
2018-10-18T22:53:19.382Z,8.47
2018-10-18T22:55:47.475Z,8.43
2018-10-18T22:58:15.597Z,8.39
2018-10-18T23:00:49.345Z,8.35
2018-10-18T23:03:18.875Z,8.44
2018-10-18T23:05:47.192Z,8.73
2018-10-18T23:08:15.366Z,8.62
2018-10-18T23:10:43.461Z,8.67
2018-10-18T23:16:04.617Z,8.67
2018-10-18T23:18:32.734Z,8.59
2018-10-18T23:21:00.851Z,8.53
2018-10-18T23:23:28.913Z,8.40
2018-10-18T23:25:56.984Z,8.33
2018-10-18T23:34:19.863Z,8.38
2018-10-18T23:36:47.953Z,8.66
2018-10-18T23:45:10.983Z,8.35
